Station History

Weather Underground - logo

Station Historical Data
Daily Summary for January 30, 2018 Units:  English    Metric   Both
« Previous Day
Next Day »
Daily Weekly Monthly Yearly Custom
  High: Low: Average:
Temperature: 68.5 °F 39.5 °F 52.7 °F
Dew Point: 52.2 °F 38.0 °F 46.6 °F
Humidity: 96 % 52 % 82 %
Wind Speed: 3.5 mph 0.0 mph 0.3 mph
Wind Gust: 3.5 mph - -
Wind:- - WSW
Pressure: 30.20 in 30.06 in -
Precipitation: 0.01 in    
Historical Graphs
 
 
Tabular Data for January 30, 2018
Time Temperature Dew Point Pressure Wind Wind Speed Wind Gust Humidity Rainfall Rate (Hourly)
00:00 45.8 °F 43.6 °F 30.20 in Calm     92 % 0.00 in
00:05 45.8 °F 43.9 °F 30.20 in Calm     93 % 0.00 in
00:10 46.1 °F 44.2 °F 30.20 in Calm     93 % 0.00 in
00:15 46.5 °F 44.6 °F 30.20 in Calm     93 % 0.00 in
00:20 46.7 °F 44.8 °F 30.19 in NE 1.2 mph 1.2 mph 93 % 0.00 in
00:25 46.9 °F 45.0 °F 30.20 in Calm     93 % 0.00 in
00:30 46.7 °F 44.5 °F 30.20 in Calm     92 % 0.00 in
00:35 46.5 °F 44.3 °F 30.20 in Calm     92 % 0.00 in
00:40 46.5 °F 44.3 °F 30.20 in Calm     92 % 0.00 in
00:45 46.3 °F 44.1 °F 30.20 in Calm     92 % 0.00 in
00:50 46.2 °F 44.0 °F 30.20 in Calm     92 % 0.00 in
00:55 46.0 °F 43.8 °F 30.20 in Calm     92 % 0.00 in
01:00 46.0 °F 44.1 °F 30.20 in Calm     93 % 0.00 in
01:05 45.9 °F 44.0 °F 30.20 in Calm     93 % 0.00 in
01:10 45.9 °F 44.0 °F 30.20 in Calm     93 % 0.00 in
01:15 45.8 °F 43.9 °F 30.20 in Calm     93 % 0.00 in
01:20 45.6 °F 43.7 °F 30.20 in Calm     93 % 0.00 in
01:25 45.6 °F 43.7 °F 30.20 in Calm     93 % 0.00 in
01:30 45.6 °F 43.7 °F 30.20 in Calm     93 % 0.00 in
01:35 45.6 °F 43.7 °F 30.20 in Calm     93 % 0.00 in
01:40 45.6 °F 43.7 °F 30.19 in Calm     93 % 0.00 in
01:45 45.7 °F 44.1 °F 30.19 in Calm     94 % 0.00 in
01:50 45.9 °F 44.3 °F 30.19 in Calm     94 % 0.00 in
01:55 45.9 °F 44.0 °F 30.19 in Calm     93 % 0.00 in
02:00 45.8 °F 43.9 °F 30.19 in Calm     93 % 0.00 in
02:05 45.7 °F 43.8 °F 30.19 in Calm     93 % 0.00 in
02:10 45.8 °F 43.9 °F 30.18 in Calm     93 % 0.00 in
02:15 45.8 °F 43.9 °F 30.18 in Calm     93 % 0.00 in
02:20 45.7 °F 43.8 °F 30.17 in Calm     93 % 0.00 in
02:25 45.9 °F 44.3 °F 30.18 in Calm     94 % 0.00 in
02:30 45.7 °F 43.8 °F 30.17 in Calm     93 % 0.00 in
02:35 45.6 °F 43.7 °F 30.17 in Calm     93 % 0.00 in
02:40 45.4 °F 43.5 °F 30.17 in Calm     93 % 0.00 in
02:45 45.1 °F 43.2 °F 30.17 in Calm     93 % 0.00 in
02:50 44.8 °F 42.9 °F 30.17 in Calm     93 % 0.00 in
02:55 44.6 °F 42.7 °F 30.16 in Calm     93 % 0.00 in
03:00 44.4 °F 42.5 °F 30.16 in Calm     93 % 0.00 in
03:05 44.1 °F 42.2 °F 30.16 in Calm     93 % 0.00 in
03:10 44.1 °F 42.2 °F 30.16 in Calm     93 % 0.00 in
03:15 44.0 °F 42.1 °F 30.16 in Calm     93 % 0.00 in
03:20 44.3 °F 42.7 °F 30.16 in Calm     94 % 0.00 in
03:25 44.1 °F 42.5 °F 30.16 in Calm     94 % 0.00 in
03:30 44.0 °F 42.4 °F 30.15 in Calm     94 % 0.00 in
03:35 43.9 °F 42.3 °F 30.15 in Calm     94 % 0.00 in
03:40 43.8 °F 41.9 °F 30.15 in Calm     93 % 0.00 in
03:45 43.6 °F 41.7 °F 30.15 in Calm     93 % 0.00 in
03:50 43.3 °F 41.4 °F 30.15 in Calm     93 % 0.00 in
03:55 43.1 °F 41.2 °F 30.15 in Calm     93 % 0.00 in
04:00 43.0 °F 41.4 °F 30.15 in Calm     94 % 0.00 in
04:05 43.2 °F 41.6 °F 30.15 in Calm     94 % 0.00 in
04:10 43.2 °F 41.6 °F 30.15 in Calm     94 % 0.00 in
04:15 42.8 °F 41.2 °F 30.15 in Calm     94 % 0.00 in
04:20 42.5 °F 40.9 °F 30.16 in Calm     94 % 0.00 in
04:25 42.6 °F 41.0 °F 30.16 in Calm     94 % 0.00 in
04:30 42.8 °F 41.5 °F 30.16 in Calm     95 % 0.00 in
04:35 42.8 °F 41.5 °F 30.16 in Calm     95 % 0.00 in
04:40 42.9 °F 41.6 °F 30.16 in Calm     95 % 0.00 in
04:45 42.8 °F 41.5 °F 30.16 in Calm     95 % 0.00 in
04:50 42.8 °F 41.5 °F 30.17 in Calm     95 % 0.00 in
04:55 42.8 °F 41.5 °F 30.17 in Calm     95 % 0.00 in
05:00 42.8 °F 41.5 °F 30.17 in Calm     95 % 0.00 in
05:05 42.8 °F 41.5 °F 30.17 in Calm     95 % 0.00 in
05:10 42.5 °F 41.2 °F 30.17 in Calm     95 % 0.00 in
05:15 41.9 °F 40.3 °F 30.17 in Calm     94 % 0.00 in
05:20 41.6 °F 40.0 °F 30.17 in Calm     94 % 0.00 in
05:25 41.5 °F 39.9 °F 30.17 in Calm     94 % 0.00 in
05:30 41.4 °F 39.8 °F 30.17 in Calm     94 % 0.00 in
05:35 41.5 °F 40.2 °F 30.17 in Calm     95 % 0.00 in
05:40 41.9 °F 40.6 °F 30.17 in Calm     95 % 0.00 in
05:46 41.8 °F 40.5 °F 30.17 in Calm     95 % 0.00 in
05:51 41.7 °F 40.4 °F 30.17 in Calm     95 % 0.00 in
05:56 41.6 °F 40.3 °F 30.17 in Calm     95 % 0.01 in
06:01 41.4 °F 40.1 °F 30.16 in Calm     95 % 0.01 in
06:06 41.0 °F 39.7 °F 30.17 in Calm     95 % 0.01 in
06:11 40.9 °F 39.6 °F 30.16 in Calm     95 % 0.01 in
06:16 40.8 °F 39.5 °F 30.16 in Calm     95 % 0.01 in
06:21 41.0 °F 39.7 °F 30.17 in Calm     95 % 0.01 in
06:26 40.7 °F 39.4 °F 30.17 in NE 1.2 mph   95 % 0.01 in
06:31 40.7 °F 39.4 °F 30.17 in Calm     95 % 0.01 in
06:36 40.3 °F 38.7 °F 30.17 in Calm     94 % 0.01 in
06:41 39.9 °F 38.3 °F 30.17 in Calm     94 % 0.01 in
06:46 39.8 °F 38.2 °F 30.17 in Calm     94 % 0.01 in
06:51 39.6 °F 38.0 °F 30.17 in Calm     94 % 0.01 in
06:56 39.6 °F 38.3 °F 30.17 in Calm     95 % 0.00 in
07:01 39.5 °F 38.2 °F 30.17 in NE 1.2 mph 1.2 mph 95 % 0.00 in
07:06 39.7 °F 38.4 °F 30.17 in Calm     95 % 0.00 in
07:11 39.9 °F 38.6 °F 30.17 in Calm     95 % 0.00 in
07:16 39.9 °F 38.6 °F 30.17 in Calm     95 % 0.00 in
07:21 40.0 °F 38.7 °F 30.17 in Calm     95 % 0.00 in
07:26 39.9 °F 38.6 °F 30.18 in Calm     95 % 0.00 in
07:31 40.1 °F 38.8 °F 30.18 in Calm     95 % 0.00 in
07:36 40.6 °F 39.3 °F 30.18 in Calm     95 % 0.00 in
07:41 41.1 °F 40.0 °F 30.18 in Calm     96 % 0.00 in
07:46 41.6 °F 40.5 °F 30.18 in Calm     96 % 0.00 in
07:51 42.4 °F 41.3 °F 30.19 in NE 1.2 mph   96 % 0.00 in
07:56 43.4 °F 42.3 °F 30.19 in Calm     96 % 0.00 in
08:01 44.9 °F 43.8 °F 30.19 in Calm     96 % 0.00 in
08:06 45.7 °F 44.6 °F 30.19 in Calm     96 % 0.00 in
08:11 46.5 °F 45.4 °F 30.19 in Calm     96 % 0.00 in
08:16 47.7 °F 46.6 °F 30.19 in Calm     96 % 0.00 in
08:21 49.2 °F 48.1 °F 30.19 in Calm     96 % 0.00 in
08:26 50.4 °F 48.7 °F 30.19 in Calm     94 % 0.00 in
08:31 51.4 °F 48.9 °F 30.19 in Calm     91 % 0.00 in
08:36 52.1 °F 49.0 °F 30.19 in Calm     89 % 0.00 in
08:41 52.7 °F 49.2 °F 30.19 in Calm     88 % 0.00 in
08:46 53.3 °F 49.5 °F 30.19 in Calm     87 % 0.00 in
08:51 54.2 °F 50.1 °F 30.19 in Calm     86 % 0.00 in
08:56 54.3 °F 49.6 °F 30.19 in SSE 1.2 mph 1.2 mph 84 % 0.00 in
09:01 54.3 °F 49.6 °F 30.18 in SE 1.2 mph 1.2 mph 84 % 0.00 in
09:06 54.9 °F 50.5 °F 30.18 in Calm     85 % 0.00 in
09:11 55.7 °F 50.6 °F 30.19 in Calm     83 % 0.00 in
09:16 56.2 °F 50.4 °F 30.19 in Calm     81 % 0.00 in
09:21 56.5 °F 50.7 °F 30.19 in Calm     81 % 0.00 in
09:26 56.8 °F 50.7 °F 30.19 in SE 2.3 mph 2.3 mph 80 % 0.00 in
09:31 56.7 °F 50.6 °F 30.19 in South 1.0 mph 1.0 mph 80 % 0.00 in
09:36 56.5 °F 50.1 °F 30.20 in NNE 2.3 mph 2.3 mph 79 % 0.00 in
09:41 55.8 °F 49.7 °F 30.20 in WNW 1.2 mph 1.2 mph 80 % 0.00 in
09:46 55.4 °F 49.7 °F 30.20 in WNW 1.2 mph 1.2 mph 81 % 0.00 in
09:51 55.0 °F 49.6 °F 30.20 in NW 1.2 mph 1.2 mph 82 % 0.00 in
09:56 54.9 °F 49.8 °F 30.20 in NW 1.0 mph 1.0 mph 83 % 0.00 in
10:01 54.7 °F 49.6 °F 30.20 in Calm     83 % 0.00 in
10:06 54.7 °F 49.6 °F 30.20 in Calm     83 % 0.00 in
10:11 55.1 °F 50.0 °F 30.19 in Calm     83 % 0.00 in
10:16 55.3 °F 50.2 °F 30.19 in Calm     83 % 0.00 in
10:21 55.7 °F 50.3 °F 30.19 in NW 1.2 mph   82 % 0.00 in
10:26 56.1 °F 50.3 °F 30.19 in South 1.2 mph 1.2 mph 81 % 0.00 in
10:31 56.5 °F 50.7 °F 30.19 in Calm     81 % 0.00 in
10:36 56.8 °F 50.7 °F 30.19 in Calm     80 % 0.00 in
10:42 57.0 °F 50.5 °F 30.19 in South 2.3 mph 2.3 mph 79 % 0.00 in
10:47 57.2 °F 50.7 °F 30.19 in Calm     79 % 0.00 in
10:52 57.4 °F 50.6 °F 30.19 in Calm     78 % 0.00 in
10:57 57.8 °F 51.3 °F 30.19 in NW 1.2 mph 1.2 mph 79 % 0.00 in
11:02 57.9 °F 50.7 °F 30.18 in WNW 2.3 mph 2.3 mph 77 % 0.00 in
11:07 58.1 °F 50.6 °F 30.18 in WNW 2.3 mph 2.3 mph 76 % 0.00 in
11:12 58.4 °F 50.5 °F 30.18 in NNW 2.3 mph 2.3 mph 75 % 0.00 in
11:17 59.2 °F 51.3 °F 30.18 in NNE 2.3 mph   75 % 0.00 in
11:22 59.8 °F 51.5 °F 30.18 in NNW 2.3 mph 2.3 mph 74 % 0.00 in
11:27 60.0 °F 51.3 °F 30.18 in Calm   0.2 mph 73 % 0.00 in
11:32 60.4 °F 51.0 °F 30.17 in NW 1.2 mph 1.2 mph 71 % 0.00 in
11:37 60.8 °F 51.3 °F 30.17 in WNW 2.3 mph 2.3 mph 71 % 0.00 in
11:42 61.3 °F 52.2 °F 30.17 in Calm     72 % 0.00 in
11:47 62.1 °F 51.8 °F 30.16 in Calm     69 % 0.00 in
11:52 62.4 °F 51.7 °F 30.16 in Calm     68 % 0.00 in
11:57 62.6 °F 51.5 °F 30.16 in NW 1.2 mph 1.2 mph 67 % 0.00 in
12:02 62.7 °F 52.0 °F 30.15 in Calm     68 % 0.00 in
12:07 62.9 °F 51.0 °F 30.15 in Calm     65 % 0.00 in
12:12 63.2 °F 51.2 °F 30.15 in West 3.5 mph 3.5 mph 65 % 0.00 in
12:17 63.2 °F 51.2 °F 30.14 in NW 1.2 mph   65 % 0.00 in
12:22 63.4 °F 51.0 °F 30.14 in Calm     64 % 0.00 in
12:27 63.9 °F 51.9 °F 30.14 in NNW 2.0 mph 2.0 mph 65 % 0.00 in
12:32 64.3 °F 51.0 °F 30.13 in Calm     62 % 0.00 in
12:37 64.9 °F 51.6 °F 30.13 in WNW 1.0 mph 1.0 mph 62 % 0.00 in
12:42 65.0 °F 51.2 °F 30.13 in NW 2.3 mph 2.3 mph 61 % 0.00 in
12:47 64.7 °F 50.9 °F 30.12 in NW 1.0 mph 1.0 mph 61 % 0.00 in
12:52 64.9 °F 50.2 °F 30.12 in NW 1.2 mph 1.2 mph 59 % 0.00 in
12:57 65.2 °F 50.5 °F 30.12 in West 1.2 mph 1.2 mph 59 % 0.00 in
13:02 65.6 °F 51.3 °F 30.12 in NE 1.2 mph   60 % 0.00 in
13:07 66.1 °F 51.8 °F 30.11 in North 1.2 mph   60 % 0.00 in
13:12 66.6 °F 51.8 °F 30.11 in Calm     59 % 0.00 in
13:17 66.8 °F 52.0 °F 30.11 in NW 1.2 mph 1.2 mph 59 % 0.00 in
13:22 66.4 °F 51.2 °F 30.11 in NW 1.2 mph 1.2 mph 58 % 0.00 in
13:27 66.3 °F 51.5 °F 30.10 in NW 1.2 mph 1.2 mph 59 % 0.00 in
13:32 66.4 °F 51.2 °F 30.10 in NNE 1.2 mph   58 % 0.00 in
13:37 66.5 °F 51.7 °F 30.10 in NW 2.3 mph 2.3 mph 59 % 0.00 in
13:42 66.7 °F 51.5 °F 30.10 in NW 1.2 mph 1.2 mph 58 % 0.00 in
13:47 67.0 °F 50.8 °F 30.10 in NNE 1.2 mph   56 % 0.00 in
13:52 67.0 °F 50.8 °F 30.09 in NW 1.2 mph 1.2 mph 56 % 0.00 in
13:57 67.3 °F 52.0 °F 30.09 in Calm     58 % 0.00 in
14:02 67.5 °F 51.2 °F 30.09 in NW 1.2 mph 1.2 mph 56 % 0.00 in
14:07 67.6 °F 50.9 °F 30.09 in NNW 2.3 mph 2.3 mph 55 % 0.00 in
14:12 67.7 °F 50.9 °F 30.09 in WNW 1.2 mph   55 % 0.00 in
14:17 68.0 °F 51.7 °F 30.09 in Calm     56 % 0.00 in
14:22 68.3 °F 51.0 °F 30.09 in Calm     54 % 0.00 in
14:27 68.5 °F 51.2 °F 30.08 in WNW 1.0 mph 1.0 mph 54 % 0.00 in
14:32 68.4 °F 51.1 °F 30.09 in WSW 1.2 mph 1.2 mph 54 % 0.00 in
14:37 68.2 °F 50.4 °F 30.09 in WNW 3.5 mph 3.5 mph 53 % 0.00 in
14:42 67.9 °F 50.1 °F 30.08 in Calm   0.1 mph 53 % 0.00 in
14:47 68.1 °F 51.8 °F 30.08 in NNW 2.3 mph 2.3 mph 56 % 0.00 in
14:52 68.0 °F 50.2 °F 30.08 in NW 1.2 mph 1.2 mph 53 % 0.00 in
14:57 67.9 °F 50.1 °F 30.08 in Calm     53 % 0.00 in
15:02 67.9 °F 50.1 °F 30.08 in NW 1.2 mph 1.2 mph 53 % 0.00 in
15:07 67.8 °F 50.5 °F 30.08 in NW 1.2 mph 1.2 mph 54 % 0.00 in
15:12 67.7 °F 49.9 °F 30.08 in West 1.2 mph 1.2 mph 53 % 0.00 in
15:17 67.5 °F 49.8 °F 30.08 in NW 1.2 mph   53 % 0.00 in
15:22 67.5 °F 49.8 °F 30.08 in Calm     53 % 0.00 in
15:27 67.4 °F 49.7 °F 30.08 in NW 2.3 mph 2.3 mph 53 % 0.00 in
15:32 67.4 °F 49.7 °F 30.07 in Calm     53 % 0.00 in
15:37 67.4 °F 49.2 °F 30.07 in Calm     52 % 0.00 in
15:42 67.5 °F 49.3 °F 30.07 in WNW 1.2 mph 1.2 mph 52 % 0.00 in
15:47 67.5 °F 49.8 °F 30.07 in WNW 2.3 mph 2.3 mph 53 % 0.00 in
15:52 67.3 °F 49.6 °F 30.07 in NW 1.0 mph 1.0 mph 53 % 0.00 in
15:57 67.2 °F 49.0 °F 30.06 in Calm     52 % 0.00 in
16:02 67.1 °F 48.9 °F 30.06 in NW 1.2 mph 1.2 mph 52 % 0.00 in
16:07 67.1 °F 48.9 °F 30.06 in Calm     52 % 0.00 in
16:12 66.9 °F 48.7 °F 30.06 in Calm     52 % 0.00 in
16:17 66.8 °F 49.1 °F 30.06 in Calm     53 % 0.00 in
16:22 66.7 °F 50.5 °F 30.06 in Calm     56 % 0.00 in
16:27 66.4 °F 51.2 °F 30.06 in Calm     58 % 0.00 in
16:32 66.1 °F 51.4 °F 30.06 in SSE 1.2 mph   59 % 0.00 in
16:37 65.8 °F 51.5 °F 30.06 in Calm     60 % 0.00 in
16:42 65.4 °F 51.6 °F 30.06 in Calm     61 % 0.00 in
16:47 65.1 °F 51.8 °F 30.07 in Calm     62 % 0.00 in
16:52 64.8 °F 51.9 °F 30.07 in Calm     63 % 0.00 in
16:57 64.5 °F 52.0 °F 30.07 in Calm     64 % 0.00 in
17:02 64.1 °F 52.1 °F 30.07 in Calm     65 % 0.00 in
17:07 63.6 °F 52.0 °F 30.06 in Calm     66 % 0.00 in
17:12 63.0 °F 51.9 °F 30.07 in Calm     67 % 0.00 in
17:17 62.4 °F 51.7 °F 30.07 in Calm     68 % 0.00 in
17:22 61.9 °F 51.6 °F 30.07 in Calm     69 % 0.00 in
17:27 61.4 °F 51.5 °F 30.07 in Calm     70 % 0.00 in
17:32 60.9 °F 51.4 °F 30.07 in Calm     71 % 0.00 in
17:37 60.4 °F 51.3 °F 30.07 in Calm     72 % 0.00 in
17:42 59.9 °F 50.8 °F 30.07 in Calm     72 % 0.00 in
17:47 59.5 °F 50.5 °F 30.07 in Calm     72 % 0.00 in
17:52 59.0 °F 50.0 °F 30.07 in Calm     72 % 0.00 in
17:58 58.7 °F 50.1 °F 30.08 in Calm     73 % 0.00 in
18:03 58.2 °F 50.0 °F 30.07 in Calm     74 % 0.00 in
18:08 57.8 °F 49.9 °F 30.08 in Calm     75 % 0.00 in
18:13 57.4 °F 49.9 °F 30.07 in Calm     76 % 0.00 in
18:18 57.0 °F 49.5 °F 30.07 in Calm     76 % 0.00 in
18:23 56.5 °F 49.4 °F 30.07 in Calm     77 % 0.00 in
18:28 56.3 °F 49.5 °F 30.07 in Calm     78 % 0.00 in
18:33 55.8 °F 49.0 °F 30.08 in Calm     78 % 0.00 in
18:38 55.3 °F 49.2 °F 30.08 in Calm     80 % 0.00 in
18:43 54.8 °F 49.1 °F 30.08 in Calm     81 % 0.00 in
18:48 54.6 °F 48.9 °F 30.07 in Calm     81 % 0.00 in
18:53 54.4 °F 48.7 °F 30.08 in Calm     81 % 0.00 in
18:59 53.9 °F 48.2 °F 30.07 in Calm     81 % 0.00 in
19:03 53.4 °F 48.0 °F 30.08 in Calm     82 % 0.00 in
19:09 52.9 °F 47.9 °F 30.08 in Calm     83 % 0.00 in
19:14 52.7 °F 48.3 °F 30.07 in Calm     85 % 0.00 in
19:19 52.8 °F 48.4 °F 30.08 in Calm     85 % 0.00 in
19:24 52.6 °F 48.2 °F 30.08 in Calm     85 % 0.00 in
19:29 52.6 °F 48.2 °F 30.07 in Calm     85 % 0.00 in
19:34 52.5 °F 48.1 °F 30.08 in Calm     85 % 0.00 in
19:39 52.4 °F 48.0 °F 30.08 in Calm     85 % 0.00 in
19:44 52.4 °F 48.0 °F 30.08 in Calm     85 % 0.00 in
19:49 52.3 °F 48.2 °F 30.08 in Calm     86 % 0.00 in
19:54 52.1 °F 48.0 °F 30.08 in Calm     86 % 0.00 in
19:59 51.8 °F 47.7 °F 30.08 in Calm     86 % 0.00 in
20:04 51.6 °F 47.9 °F 30.09 in Calm     87 % 0.00 in
20:09 51.4 °F 47.7 °F 30.09 in Calm     87 % 0.00 in
20:14 51.2 °F 47.5 °F 30.08 in Calm     87 % 0.00 in
20:19 50.8 °F 47.1 °F 30.09 in Calm     87 % 0.00 in
20:24 50.6 °F 46.9 °F 30.09 in Calm     87 % 0.00 in
20:29 50.5 °F 47.1 °F 30.09 in Calm     88 % 0.00 in
20:34 50.6 °F 47.2 °F 30.09 in Calm     88 % 0.00 in
20:39 50.7 °F 47.3 °F 30.10 in Calm     88 % 0.00 in
20:44 50.4 °F 47.0 °F 30.10 in Calm     88 % 0.00 in
20:49 50.0 °F 46.3 °F 30.10 in Calm     87 % 0.00 in
20:54 49.4 °F 46.0 °F 30.10 in Calm     88 % 0.00 in
20:59 49.1 °F 46.0 °F 30.10 in Calm     89 % 0.00 in
21:04 48.9 °F 45.8 °F 30.11 in Calm     89 % 0.00 in
21:09 48.8 °F 46.0 °F 30.11 in Calm     90 % 0.00 in
21:14 48.7 °F 45.9 °F 30.11 in Calm     90 % 0.00 in
21:19 48.5 °F 45.7 °F 30.11 in Calm     90 % 0.00 in
21:24 48.3 °F 45.5 °F 30.11 in Calm     90 % 0.00 in
21:29 48.1 °F 45.3 °F 30.11 in Calm     90 % 0.00 in
21:34 48.2 °F 45.7 °F 30.11 in Calm     91 % 0.00 in
21:39 48.2 °F 45.7 °F 30.11 in Calm     91 % 0.00 in
21:44 48.1 °F 45.6 °F 30.11 in Calm     91 % 0.00 in
21:49 47.9 °F 45.4 °F 30.11 in Calm     91 % 0.00 in
21:54 47.7 °F 45.2 °F 30.11 in Calm     91 % 0.00 in
21:59 47.6 °F 45.1 °F 30.11 in Calm     91 % 0.00 in
22:04 47.5 °F 45.0 °F 30.11 in Calm     91 % 0.00 in
22:09 47.3 °F 44.8 °F 30.11 in Calm     91 % 0.00 in
22:14 47.2 °F 44.7 °F 30.11 in Calm     91 % 0.00 in
22:19 47.3 °F 45.1 °F 30.11 in Calm     92 % 0.00 in
22:24 47.1 °F 44.6 °F 30.12 in Calm     91 % 0.00 in
22:29 47.1 °F 44.6 °F 30.11 in Calm     91 % 0.00 in
22:34 47.2 °F 44.7 °F 30.11 in Calm     91 % 0.00 in
22:39 47.2 °F 44.7 °F 30.11 in Calm     91 % 0.00 in
22:44 47.0 °F 44.5 °F 30.11 in Calm     91 % 0.00 in
22:49 47.0 °F 44.5 °F 30.11 in Calm     91 % 0.00 in
22:54 46.9 °F 44.4 °F 30.11 in Calm     91 % 0.00 in
22:59 46.9 °F 44.4 °F 30.11 in Calm     91 % 0.00 in
23:04 46.8 °F 44.6 °F 30.11 in Calm     92 % 0.00 in
23:09 46.7 °F 44.2 °F 30.11 in Calm     91 % 0.00 in
23:14 46.7 °F 44.2 °F 30.11 in Calm     91 % 0.00 in
23:19 46.6 °F 44.4 °F 30.10 in Calm     92 % 0.00 in
23:24 46.5 °F 44.0 °F 30.10 in Calm     91 % 0.00 in
23:29 46.3 °F 43.8 °F 30.10 in Calm     91 % 0.00 in
23:34 46.0 °F 43.5 °F 30.10 in Calm     91 % 0.00 in
23:39 45.9 °F 43.4 °F 30.10 in Calm     91 % 0.00 in
23:44 45.7 °F 43.2 °F 30.10 in Calm     91 % 0.00 in
23:49 45.5 °F 43.0 °F 30.10 in Calm     91 % 0.00 in
23:54 45.4 °F 43.2 °F 30.10 in Calm     92 % 0.00 in
23:59 45.3 °F 42.8 °F 30.10 in Calm     91 % 0.00 in
Park Place, Exeter, Tulare County, California, USA
Compliments of Weather Underground - 2.75 mb